sensor_id;sensor_type;location;lat;lon;timestamp;P1;durP1;ratioP1;P2;durP2;ratioP2
34403;SDS011;23116;47.660;9.126;2023-04-24T00:01:56;0.88;;;0.47;;
34403;SDS011;23116;47.660;9.126;2023-04-24T00:04:23;0.52;;;0.50;;
34403;SDS011;23116;47.660;9.126;2023-04-24T00:06:51;0.95;;;0.40;;
34403;SDS011;23116;47.660;9.126;2023-04-24T00:09:22;0.40;;;0.40;;
34403;SDS011;23116;47.660;9.126;2023-04-24T00:11:49;0.57;;;0.32;;
34403;SDS011;23116;47.660;9.126;2023-04-24T00:14:17;0.40;;;0.40;;
34403;SDS011;23116;47.660;9.126;2023-04-24T00:16:44;0.50;;;0.38;;
34403;SDS011;23116;47.660;9.126;2023-04-24T00:19:11;0.40;;;0.40;;
34403;SDS011;23116;47.660;9.126;2023-04-24T00:21:38;1.30;;;0.45;;
34403;SDS011;23116;47.660;9.126;2023-04-24T00:24:06;0.40;;;0.40;;
34403;SDS011;23116;47.660;9.126;2023-04-24T00:26:34;0.40;;;0.40;;
34403;SDS011;23116;47.660;9.126;2023-04-24T00:29:01;0.40;;;0.40;;
34403;SDS011;23116;47.660;9.126;2023-04-24T00:31:28;0.47;;;0.30;;
34403;SDS011;23116;47.660;9.126;2023-04-24T00:33:55;0.40;;;0.40;;
34403;SDS011;23116;47.660;9.126;2023-04-24T00:36:23;0.32;;;0.32;;
34403;SDS011;23116;47.660;9.126;2023-04-24T00:38:52;0.43;;;0.43;;
34403;SDS011;23116;47.660;9.126;2023-04-24T00:41:20;1.25;;;0.60;;
34403;SDS011;23116;47.660;9.126;2023-04-24T00:43:47;0.50;;;0.50;;
34403;SDS011;23116;47.660;9.126;2023-04-24T00:46:15;0.40;;;0.40;;
34403;SDS011;23116;47.660;9.126;2023-04-24T00:48:43;0.70;;;0.70;;
34403;SDS011;23116;47.660;9.126;2023-04-24T00:51:10;0.40;;;0.40;;
34403;SDS011;23116;47.660;9.126;2023-04-24T00:53:38;0.50;;;0.50;;
34403;SDS011;23116;47.660;9.126;2023-04-24T00:56:05;0.82;;;0.50;;
34403;SDS011;23116;47.660;9.126;2023-04-24T00:58:32;0.63;;;0.35;;
34403;SDS011;23116;47.660;9.126;2023-04-24T01:01:00;0.55;;;0.30;;
34403;SDS011;23116;47.660;9.126;2023-04-24T01:03:28;0.30;;;0.30;;
34403;SDS011;23116;47.660;9.126;2023-04-24T01:05:56;0.30;;;0.30;;
34403;SDS011;23116;47.660;9.126;2023-04-24T01:08:24;0.75;;;0.50;;
34403;SDS011;23116;47.660;9.126;2023-04-24T01:10:53;0.40;;;0.35;;
34403;SDS011;23116;47.660;9.126;2023-04-24T01:13:21;0.20;;;0.20;;
34403;SDS011;23116;47.660;9.126;2023-04-24T01:15:49;0.50;;;0.50;;
34403;SDS011;23116;47.660;9.126;2023-04-24T01:18:16;0.22;;;0.22;;
34403;SDS011;23116;47.660;9.126;2023-04-24T01:20:43;0.45;;;0.40;;
34403;SDS011;23116;47.660;9.126;2023-04-24T01:23:11;0.45;;;0.20;;
34403;SDS011;23116;47.660;9.126;2023-04-24T01:25:39;0.10;;;0.10;;
34403;SDS011;23116;47.660;9.126;2023-04-24T01:28:06;0.32;;;0.22;;
34403;SDS011;23116;47.660;9.126;2023-04-24T01:30:33;1.50;;;0.20;;
34403;SDS011;23116;47.660;9.126;2023-04-24T01:33:00;0.17;;;0.17;;
34403;SDS011;23116;47.660;9.126;2023-04-24T01:35:28;0.45;;;0.28;;
34403;SDS011;23116;47.660;9.126;2023-04-24T01:37:55;0.20;;;0.20;;
34403;SDS011;23116;47.660;9.126;2023-04-24T01:40:22;0.45;;;0.30;;
34403;SDS011;23116;47.660;9.126;2023-04-24T01:42:49;0.20;;;0.10;;
34403;SDS011;23116;47.660;9.126;2023-04-24T01:45:17;0.10;;;0.10;;
34403;SDS011;23116;47.660;9.126;2023-04-24T01:47:44;0.55;;;0.40;;
34403;SDS011;23116;47.660;9.126;2023-04-24T01:50:12;0.17;;;0.17;;
34403;SDS011;23116;47.660;9.126;2023-04-24T01:52:39;0.82;;;0.17;;
34403;SDS011;23116;47.660;9.126;2023-04-24T01:55:06;0.30;;;0.30;;
34403;SDS011;23116;47.660;9.126;2023-04-24T01:57:34;0.43;;;0.40;;
34403;SDS011;23116;47.660;9.126;2023-04-24T02:00:03;0.20;;;0.20;;
34403;SDS011;23116;47.660;9.126;2023-04-24T02:02:32;0.35;;;0.13;;
34403;SDS011;23116;47.660;9.126;2023-04-24T02:04:59;0.52;;;0.28;;
34403;SDS011;23116;47.660;9.126;2023-04-24T02:07:27;0.30;;;0.30;;
34403;SDS011;23116;47.660;9.126;2023-04-24T02:09:54;0.25;;;0.15;;
34403;SDS011;23116;47.660;9.126;2023-04-24T02:12:22;0.20;;;0.20;;
34403;SDS011;23116;47.660;9.126;2023-04-24T02:14:49;1.20;;;0.20;;
34403;SDS011;23116;47.660;9.126;2023-04-24T02:17:16;0.20;;;0.20;;
34403;SDS011;23116;47.660;9.126;2023-04-24T02:19:44;0.10;;;0.10;;
34403;SDS011;23116;47.660;9.126;2023-04-24T02:22:11;0.57;;;0.50;;
34403;SDS011;23116;47.660;9.126;2023-04-24T02:24:38;0.22;;;0.20;;
34403;SDS011;23116;47.660;9.126;2023-04-24T02:27:05;0.30;;;0.30;;
34403;SDS011;23116;47.660;9.126;2023-04-24T02:29:33;0.47;;;0.32;;
34403;SDS011;23116;47.660;9.126;2023-04-24T02:32:00;0.20;;;0.20;;
34403;SDS011;23116;47.660;9.126;2023-04-24T02:34:28;0.10;;;0.10;;
34403;SDS011;23116;47.660;9.126;2023-04-24T02:36:55;0.20;;;0.20;;
34403;SDS011;23116;47.660;9.126;2023-04-24T02:39:22;0.20;;;0.20;;
34403;SDS011;23116;47.660;9.126;2023-04-24T02:41:50;1.20;;;0.20;;
34403;SDS011;23116;47.660;9.126;2023-04-24T02:44:17;0.15;;;0.15;;
34403;SDS011;23116;47.660;9.126;2023-04-24T02:46:44;0.20;;;0.10;;
34403;SDS011;23116;47.660;9.126;2023-04-24T02:49:11;0.40;;;0.30;;
34403;SDS011;23116;47.660;9.126;2023-04-24T02:51:38;0.10;;;0.10;;
34403;SDS011;23116;47.660;9.126;2023-04-24T02:54:06;0.10;;;0.10;;
34403;SDS011;23116;47.660;9.126;2023-04-24T02:56:37;1.38;;;0.15;;
34403;SDS011;23116;47.660;9.126;2023-04-24T02:59:04;0.10;;;0.10;;
34403;SDS011;23116;47.660;9.126;2023-04-24T03:01:31;0.38;;;0.20;;
34403;SDS011;23116;47.660;9.126;2023-04-24T03:03:59;0.00;;;0.00;;
34403;SDS011;23116;47.660;9.126;2023-04-24T03:06:26;0.22;;;0.10;;
34403;SDS011;23116;47.660;9.126;2023-04-24T03:08:53;0.00;;;0.00;;
34403;SDS011;23116;47.660;9.126;2023-04-24T03:11:20;0.30;;;0.10;;
34403;SDS011;23116;47.660;9.126;2023-04-24T03:13:47;0.30;;;0.20;;
34403;SDS011;23116;47.660;9.126;2023-04-24T03:16:14;0.40;;;0.10;;
34403;SDS011;23116;47.660;9.126;2023-04-24T03:18:42;0.15;;;0.10;;
34403;SDS011;23116;47.660;9.126;2023-04-24T03:21:09;0.13;;;0.10;;
34403;SDS011;23116;47.660;9.126;2023-04-24T03:23:39;0.20;;;0.20;;
34403;SDS011;23116;47.660;9.126;2023-04-24T03:26:06;0.10;;;0.10;;
34403;SDS011;23116;47.660;9.126;2023-04-24T03:28:33;0.30;;;0.30;;
34403;SDS011;23116;47.660;9.126;2023-04-24T03:31:00;0.30;;;0.20;;
34403;SDS011;23116;47.660;9.126;2023-04-24T03:33:28;0.28;;;0.20;;
34403;SDS011;23116;47.660;9.126;2023-04-24T03:35:56;0.20;;;0.10;;
34403;SDS011;23116;47.660;9.126;2023-04-24T03:38:23;0.13;;;0.10;;
34403;SDS011;23116;47.660;9.126;2023-04-24T03:40:50;0.20;;;0.20;;
34403;SDS011;23116;47.660;9.126;2023-04-24T03:43:17;0.10;;;0.10;;
34403;SDS011;23116;47.660;9.126;2023-04-24T03:45:44;0.10;;;0.10;;
34403;SDS011;23116;47.660;9.126;2023-04-24T03:48:11;0.65;;;0.20;;
34403;SDS011;23116;47.660;9.126;2023-04-24T03:50:38;0.10;;;0.10;;
34403;SDS011;23116;47.660;9.126;2023-04-24T03:53:06;0.10;;;0.08;;
34403;SDS011;23116;47.660;9.126;2023-04-24T03:55:33;0.28;;;0.10;;
34403;SDS011;23116;47.660;9.126;2023-04-24T03:58:00;0.30;;;0.30;;
34403;SDS011;23116;47.660;9.126;2023-04-24T04:00:27;0.20;;;0.20;;
34403;SDS011;23116;47.660;9.126;2023-04-24T04:02:58;0.00;;;0.00;;
34403;SDS011;23116;47.660;9.126;2023-04-24T04:05:25;0.68;;;0.20;;
34403;SDS011;23116;47.660;9.126;2023-04-24T04:07:52;0.10;;;0.10;;
34403;SDS011;23116;47.660;9.126;2023-04-24T04:10:20;0.00;;;0.00;;
34403;SDS011;23116;47.660;9.126;2023-04-24T04:12:48;0.20;;;0.20;;
34403;SDS011;23116;47.660;9.126;2023-04-24T04:15:15;0.10;;;0.10;;
34403;SDS011;23116;47.660;9.126;2023-04-24T04:17:42;0.22;;;0.03;;
34403;SDS011;23116;47.660;9.126;2023-04-24T04:20:11;0.10;;;0.10;;
34403;SDS011;23116;47.660;9.126;2023-04-24T04:22:38;0.20;;;0.10;;
34403;SDS011;23116;47.660;9.126;2023-04-24T04:25:05;0.30;;;0.28;;
34403;SDS011;23116;47.660;9.126;2023-04-24T04:27:33;0.05;;;0.05;;
34403;SDS011;23116;47.660;9.126;2023-04-24T04:30:01;0.08;;;0.08;;
34403;SDS011;23116;47.660;9.126;2023-04-24T04:32:33;1.48;;;0.10;;
34403;SDS011;23116;47.660;9.126;2023-04-24T04:35:01;0.05;;;0.05;;
34403;SDS011;23116;47.660;9.126;2023-04-24T04:37:29;0.55;;;0.20;;
34403;SDS011;23116;47.660;9.126;2023-04-24T04:39:59;0.10;;;0.10;;
34403;SDS011;23116;47.660;9.126;2023-04-24T04:42:31;0.10;;;0.10;;
34403;SDS011;23116;47.660;9.126;2023-04-24T04:44:59;0.10;;;0.10;;
34403;SDS011;23116;47.660;9.126;2023-04-24T04:47:27;0.10;;;0.10;;
34403;SDS011;23116;47.660;9.126;2023-04-24T04:49:57;0.10;;;0.10;;
34403;SDS011;23116;47.660;9.126;2023-04-24T04:52:24;0.10;;;0.10;;
34403;SDS011;23116;47.660;9.126;2023-04-24T04:54:52;0.05;;;0.05;;
34403;SDS011;23116;47.660;9.126;2023-04-24T04:57:19;0.10;;;0.10;;
34403;SDS011;23116;47.660;9.126;2023-04-24T04:59:47;0.00;;;0.00;;
34403;SDS011;23116;47.660;9.126;2023-04-24T05:02:14;0.20;;;0.20;;
34403;SDS011;23116;47.660;9.126;2023-04-24T05:04:41;0.55;;;0.15;;
34403;SDS011;23116;47.660;9.126;2023-04-24T05:07:08;0.30;;;0.10;;
34403;SDS011;23116;47.660;9.126;2023-04-24T05:09:35;0.20;;;0.20;;
34403;SDS011;23116;47.660;9.126;2023-04-24T05:12:03;0.22;;;0.10;;
34403;SDS011;23116;47.660;9.126;2023-04-24T05:14:30;0.10;;;0.10;;
34403;SDS011;23116;47.660;9.126;2023-04-24T05:16:57;0.15;;;0.10;;
34403;SDS011;23116;47.660;9.126;2023-04-24T05:19:25;0.00;;;0.00;;
34403;SDS011;23116;47.660;9.126;2023-04-24T05:21:52;0.35;;;0.10;;
34403;SDS011;23116;47.660;9.126;2023-04-24T05:24:19;0.00;;;0.00;;
34403;SDS011;23116;47.660;9.126;2023-04-24T05:26:46;0.03;;;0.03;;
34403;SDS011;23116;47.660;9.126;2023-04-24T05:29:13;0.00;;;0.00;;
34403;SDS011;23116;47.660;9.126;2023-04-24T05:31:40;0.40;;;0.40;;
34403;SDS011;23116;47.660;9.126;2023-04-24T05:34:08;0.40;;;0.40;;
34403;SDS011;23116;47.660;9.126;2023-04-24T05:36:35;0.28;;;0.28;;
34403;SDS011;23116;47.660;9.126;2023-04-24T05:39:02;0.40;;;0.30;;
34403;SDS011;23116;47.660;9.126;2023-04-24T05:41:30;0.10;;;0.10;;
34403;SDS011;23116;47.660;9.126;2023-04-24T05:43:57;0.40;;;0.40;;
34403;SDS011;23116;47.660;9.126;2023-04-24T05:46:24;0.40;;;0.20;;
34403;SDS011;23116;47.660;9.126;2023-04-24T05:48:51;0.52;;;0.30;;
34403;SDS011;23116;47.660;9.126;2023-04-24T05:51:18;0.77;;;0.35;;
34403;SDS011;23116;47.660;9.126;2023-04-24T05:53:45;0.85;;;0.28;;
34403;SDS011;23116;47.660;9.126;2023-04-24T05:56:13;0.35;;;0.35;;
34403;SDS011;23116;47.660;9.126;2023-04-24T05:58:41;0.30;;;0.30;;
34403;SDS011;23116;47.660;9.126;2023-04-24T06:01:08;0.80;;;0.70;;
34403;SDS011;23116;47.660;9.126;2023-04-24T06:03:35;0.60;;;0.55;;
34403;SDS011;23116;47.660;9.126;2023-04-24T06:06:03;0.30;;;0.30;;
34403;SDS011;23116;47.660;9.126;2023-04-24T06:08:31;0.55;;;0.30;;
34403;SDS011;23116;47.660;9.126;2023-04-24T06:10:58;0.73;;;0.40;;
34403;SDS011;23116;47.660;9.126;2023-04-24T06:13:25;0.30;;;0.30;;
34403;SDS011;23116;47.660;9.126;2023-04-24T06:15:52;0.20;;;0.20;;
34403;SDS011;23116;47.660;9.126;2023-04-24T06:18:20;0.90;;;0.50;;
34403;SDS011;23116;47.660;9.126;2023-04-24T06:20:47;0.75;;;0.50;;
34403;SDS011;23116;47.660;9.126;2023-04-24T06:23:14;0.50;;;0.50;;
34403;SDS011;23116;47.660;9.126;2023-04-24T06:25:44;0.85;;;0.60;;
34403;SDS011;23116;47.660;9.126;2023-04-24T06:28:11;1.23;;;0.60;;
34403;SDS011;23116;47.660;9.126;2023-04-24T06:30:39;0.57;;;0.32;;
34403;SDS011;23116;47.660;9.126;2023-04-24T06:33:06;0.50;;;0.50;;
34403;SDS011;23116;47.660;9.126;2023-04-24T06:35:33;0.60;;;0.60;;
34403;SDS011;23116;47.660;9.126;2023-04-24T06:38:00;0.38;;;0.38;;
34403;SDS011;23116;47.660;9.126;2023-04-24T06:40:28;0.60;;;0.60;;
34403;SDS011;23116;47.660;9.126;2023-04-24T06:42:55;0.60;;;0.60;;
34403;SDS011;23116;47.660;9.126;2023-04-24T06:45:23;0.88;;;0.85;;
34403;SDS011;23116;47.660;9.126;2023-04-24T06:47:50;0.75;;;0.75;;
34403;SDS011;23116;47.660;9.126;2023-04-24T06:50:17;1.15;;;0.73;;
34403;SDS011;23116;47.660;9.126;2023-04-24T06:52:45;0.85;;;0.85;;
34403;SDS011;23116;47.660;9.126;2023-04-24T06:55:12;1.15;;;1.08;;
34403;SDS011;23116;47.660;9.126;2023-04-24T06:57:41;3.17;;;1.10;;
34403;SDS011;23116;47.660;9.126;2023-04-24T07:00:10;1.67;;;1.20;;
34403;SDS011;23116;47.660;9.126;2023-04-24T07:02:38;0.95;;;0.95;;
34403;SDS011;23116;47.660;9.126;2023-04-24T07:05:05;1.33;;;1.23;;
34403;SDS011;23116;47.660;9.126;2023-04-24T07:07:33;1.98;;;1.15;;
34403;SDS011;23116;47.660;9.126;2023-04-24T07:10:03;1.05;;;1.02;;
34403;SDS011;23116;47.660;9.126;2023-04-24T07:12:31;0.90;;;0.90;;
34403;SDS011;23116;47.660;9.126;2023-04-24T07:14:58;1.20;;;1.10;;
34403;SDS011;23116;47.660;9.126;2023-04-24T07:17:26;1.60;;;1.33;;
34403;SDS011;23116;47.660;9.126;2023-04-24T07:19:53;2.10;;;1.17;;
34403;SDS011;23116;47.660;9.126;2023-04-24T07:22:20;1.40;;;1.30;;
34403;SDS011;23116;47.660;9.126;2023-04-24T07:24:47;1.35;;;1.00;;
34403;SDS011;23116;47.660;9.126;2023-04-24T07:27:14;1.20;;;1.10;;
34403;SDS011;23116;47.660;9.126;2023-04-24T07:29:42;2.13;;;1.40;;
34403;SDS011;23116;47.660;9.126;2023-04-24T07:32:09;1.67;;;1.40;;
34403;SDS011;23116;47.660;9.126;2023-04-24T07:34:36;4.80;;;1.33;;
34403;SDS011;23116;47.660;9.126;2023-04-24T07:37:03;1.77;;;1.30;;
34403;SDS011;23116;47.660;9.126;2023-04-24T07:39:31;1.42;;;1.33;;
34403;SDS011;23116;47.660;9.126;2023-04-24T07:41:58;2.33;;;1.35;;
34403;SDS011;23116;47.660;9.126;2023-04-24T07:44:26;2.22;;;1.30;;
34403;SDS011;23116;47.660;9.126;2023-04-24T07:46:53;2.85;;;1.80;;
34403;SDS011;23116;47.660;9.126;2023-04-24T07:49:21;2.45;;;1.20;;
34403;SDS011;23116;47.660;9.126;2023-04-24T07:51:48;2.00;;;1.23;;
34403;SDS011;23116;47.660;9.126;2023-04-24T07:54:15;1.80;;;1.10;;
34403;SDS011;23116;47.660;9.126;2023-04-24T07:56:43;1.48;;;1.33;;
34403;SDS011;23116;47.660;9.126;2023-04-24T07:59:10;1.73;;;1.50;;
34403;SDS011;23116;47.660;9.126;2023-04-24T08:01:37;2.13;;;1.50;;
34403;SDS011;23116;47.660;9.126;2023-04-24T08:04:04;1.63;;;1.10;;
34403;SDS011;23116;47.660;9.126;2023-04-24T08:06:32;1.50;;;1.25;;
34403;SDS011;23116;47.660;9.126;2023-04-24T08:08:59;2.10;;;1.60;;
34403;SDS011;23116;47.660;9.126;2023-04-24T08:11:27;1.23;;;1.00;;
34403;SDS011;23116;47.660;9.126;2023-04-24T08:13:54;1.20;;;1.10;;
34403;SDS011;23116;47.660;9.126;2023-04-24T08:16:21;1.52;;;1.30;;
34403;SDS011;23116;47.660;9.126;2023-04-24T08:18:49;1.30;;;0.85;;
34403;SDS011;23116;47.660;9.126;2023-04-24T08:21:16;1.40;;;1.05;;
34403;SDS011;23116;47.660;9.126;2023-04-24T08:23:50;1.42;;;1.15;;
34403;SDS011;23116;47.660;9.126;2023-04-24T08:26:17;1.52;;;1.10;;
34403;SDS011;23116;47.660;9.126;2023-04-24T08:28:45;2.15;;;1.10;;
34403;SDS011;23116;47.660;9.126;2023-04-24T08:31:12;0.82;;;0.82;;
34403;SDS011;23116;47.660;9.126;2023-04-24T08:33:39;1.35;;;1.25;;
34403;SDS011;23116;47.660;9.126;2023-04-24T08:36:07;1.08;;;1.08;;
34403;SDS011;23116;47.660;9.126;2023-04-24T08:38:34;1.88;;;1.05;;
34403;SDS011;23116;47.660;9.126;2023-04-24T08:41:01;1.60;;;1.13;;
34403;SDS011;23116;47.660;9.126;2023-04-24T08:43:30;1.98;;;1.00;;
34403;SDS011;23116;47.660;9.126;2023-04-24T08:46:01;0.90;;;0.80;;
34403;SDS011;23116;47.660;9.126;2023-04-24T08:48:29;1.08;;;0.90;;
34403;SDS011;23116;47.660;9.126;2023-04-24T08:50:58;1.05;;;0.82;;
34403;SDS011;23116;47.660;9.126;2023-04-24T08:53:27;1.08;;;1.00;;
34403;SDS011;23116;47.660;9.126;2023-04-24T08:55:55;1.48;;;1.13;;
34403;SDS011;23116;47.660;9.126;2023-04-24T08:58:22;1.10;;;1.00;;
34403;SDS011;23116;47.660;9.126;2023-04-24T09:00:54;1.70;;;1.20;;
34403;SDS011;23116;47.660;9.126;2023-04-24T09:03:22;1.20;;;0.90;;
34403;SDS011;23116;47.660;9.126;2023-04-24T09:05:50;1.15;;;0.90;;
34403;SDS011;23116;47.660;9.126;2023-04-24T09:08:20;1.10;;;1.00;;
34403;SDS011;23116;47.660;9.126;2023-04-24T09:10:51;0.85;;;0.85;;
34403;SDS011;23116;47.660;9.126;2023-04-24T09:13:18;1.23;;;0.85;;
34403;SDS011;23116;47.660;9.126;2023-04-24T09:15:46;1.20;;;0.93;;
34403;SDS011;23116;47.660;9.126;2023-04-24T09:18:13;3.45;;;1.27;;
34403;SDS011;23116;47.660;9.126;2023-04-24T09:20:59;2.05;;;1.30;;
34403;SDS011;23116;47.660;9.126;2023-04-24T09:23:30;1.38;;;1.00;;
34403;SDS011;23116;47.660;9.126;2023-04-24T09:25:58;1.48;;;0.90;;
34403;SDS011;23116;47.660;9.126;2023-04-24T09:31:13;1.70;;;1.10;;
34403;SDS011;23116;47.660;9.126;2023-04-24T09:36:41;1.25;;;1.00;;
34403;SDS011;23116;47.660;9.126;2023-04-24T09:39:10;1.40;;;1.30;;
34403;SDS011;23116;47.660;9.126;2023-04-24T09:41:46;1.20;;;1.10;;
34403;SDS011;23116;47.660;9.126;2023-04-24T09:44:19;4.68;;;1.80;;
34403;SDS011;23116;47.660;9.126;2023-04-24T09:46:58;3.17;;;1.20;;
34403;SDS011;23116;47.660;9.126;2023-04-24T09:49:26;1.85;;;1.08;;
34403;SDS011;23116;47.660;9.126;2023-04-24T09:52:05;2.35;;;1.42;;
34403;SDS011;23116;47.660;9.126;2023-04-24T09:54:36;5.97;;;1.70;;
34403;SDS011;23116;47.660;9.126;2023-04-24T09:57:03;1.67;;;1.23;;
34403;SDS011;23116;47.660;9.126;2023-04-24T09:59:32;1.70;;;1.30;;
34403;SDS011;23116;47.660;9.126;2023-04-24T10:02:00;1.75;;;1.23;;
34403;SDS011;23116;47.660;9.126;2023-04-24T10:04:28;4.05;;;1.70;;
34403;SDS011;23116;47.660;9.126;2023-04-24T10:06:55;1.33;;;1.23;;
34403;SDS011;23116;47.660;9.126;2023-04-24T10:09:24;2.80;;;1.30;;
34403;SDS011;23116;47.660;9.126;2023-04-24T10:11:52;2.95;;;1.77;;
34403;SDS011;23116;47.660;9.126;2023-04-24T10:14:21;1.17;;;1.05;;
34403;SDS011;23116;47.660;9.126;2023-04-24T10:16:50;2.58;;;1.05;;
34403;SDS011;23116;47.660;9.126;2023-04-24T10:19:21;2.72;;;1.20;;
34403;SDS011;23116;47.660;9.126;2023-04-24T10:21:54;2.75;;;1.10;;
34403;SDS011;23116;47.660;9.126;2023-04-24T10:24:22;2.28;;;0.95;;
34403;SDS011;23116;47.660;9.126;2023-04-24T10:26:50;1.92;;;1.23;;
34403;SDS011;23116;47.660;9.126;2023-04-24T10:29:18;1.15;;;1.05;;
34403;SDS011;23116;47.660;9.126;2023-04-24T10:31:46;1.30;;;1.20;;
34403;SDS011;23116;47.660;9.126;2023-04-24T10:34:14;1.88;;;1.30;;
34403;SDS011;23116;47.660;9.126;2023-04-24T10:36:43;0.90;;;0.90;;
34403;SDS011;23116;47.660;9.126;2023-04-24T10:39:15;1.17;;;1.00;;
34403;SDS011;23116;47.660;9.126;2023-04-24T10:41:43;1.10;;;1.00;;
34403;SDS011;23116;47.660;9.126;2023-04-24T10:44:14;1.10;;;1.00;;
34403;SDS011;23116;47.660;9.126;2023-04-24T10:46:45;1.10;;;0.90;;
34403;SDS011;23116;47.660;9.126;2023-04-24T10:49:17;2.35;;;1.15;;
34403;SDS011;23116;47.660;9.126;2023-04-24T10:52:00;2.92;;;1.15;;
34403;SDS011;23116;47.660;9.126;2023-04-24T10:54:42;1.52;;;1.10;;
34403;SDS011;23116;47.660;9.126;2023-04-24T10:59:45;0.80;;;0.80;;
34403;SDS011;23116;47.660;9.126;2023-04-24T11:02:14;3.95;;;1.13;;
34403;SDS011;23116;47.660;9.126;2023-04-24T11:04:41;2.03;;;1.10;;
34403;SDS011;23116;47.660;9.126;2023-04-24T11:07:10;2.00;;;1.33;;
34403;SDS011;23116;47.660;9.126;2023-04-24T11:09:37;1.92;;;1.30;;
34403;SDS011;23116;47.660;9.126;2023-04-24T11:12:09;1.50;;;1.00;;
34403;SDS011;23116;47.660;9.126;2023-04-24T11:20:08;1.58;;;1.02;;
34403;SDS011;23116;47.660;9.126;2023-04-24T11:22:41;1.90;;;1.42;;
34403;SDS011;23116;47.660;9.126;2023-04-24T11:25:08;2.88;;;1.65;;
34403;SDS011;23116;47.660;9.126;2023-04-24T11:27:40;2.53;;;1.42;;
34403;SDS011;23116;47.660;9.126;2023-04-24T11:30:11;1.58;;;1.45;;
34403;SDS011;23116;47.660;9.126;2023-04-24T11:32:42;3.53;;;1.40;;
34403;SDS011;23116;47.660;9.126;2023-04-24T11:35:16;3.97;;;1.40;;
34403;SDS011;23116;47.660;9.126;2023-04-24T11:37:53;1.42;;;1.25;;
34403;SDS011;23116;47.660;9.126;2023-04-24T11:40:21;2.03;;;1.20;;
34403;SDS011;23116;47.660;9.126;2023-04-24T11:42:50;5.28;;;1.63;;
34403;SDS011;23116;47.660;9.126;2023-04-24T11:45:24;3.95;;;2.22;;
34403;SDS011;23116;47.660;9.126;2023-04-24T11:47:53;2.55;;;1.35;;
34403;SDS011;23116;47.660;9.126;2023-04-24T11:50:22;1.23;;;0.90;;
34403;SDS011;23116;47.660;9.126;2023-04-24T11:52:51;3.63;;;1.67;;
34403;SDS011;23116;47.660;9.126;2023-04-24T11:57:47;2.90;;;1.35;;
34403;SDS011;23116;47.660;9.126;2023-04-24T12:00:16;2.20;;;1.60;;
34403;SDS011;23116;47.660;9.126;2023-04-24T12:02:46;1.67;;;1.17;;
34403;SDS011;23116;47.660;9.126;2023-04-24T12:05:25;3.97;;;1.05;;
34403;SDS011;23116;47.660;9.126;2023-04-24T12:07:53;5.20;;;1.60;;
34403;SDS011;23116;47.660;9.126;2023-04-24T12:10:20;2.35;;;1.15;;
34403;SDS011;23116;47.660;9.126;2023-04-24T12:12:49;2.15;;;1.15;;
34403;SDS011;23116;47.660;9.126;2023-04-24T12:15:18;1.10;;;1.00;;
34403;SDS011;23116;47.660;9.126;2023-04-24T12:17:46;1.75;;;1.02;;
34403;SDS011;23116;47.660;9.126;2023-04-24T12:20:15;1.38;;;1.00;;
34403;SDS011;23116;47.660;9.126;2023-04-24T12:25:19;1.55;;;1.45;;
34403;SDS011;23116;47.660;9.126;2023-04-24T12:27:52;2.75;;;1.25;;
34403;SDS011;23116;47.660;9.126;2023-04-24T12:30:30;2.13;;;1.25;;
34403;SDS011;23116;47.660;9.126;2023-04-24T12:33:00;2.35;;;1.23;;
34403;SDS011;23116;47.660;9.126;2023-04-24T12:35:29;1.20;;;1.10;;
34403;SDS011;23116;47.660;9.126;2023-04-24T12:38:08;0.98;;;0.93;;
34403;SDS011;23116;47.660;9.126;2023-04-24T12:40:40;1.00;;;0.88;;
34403;SDS011;23116;47.660;9.126;2023-04-24T12:43:18;1.95;;;0.90;;
34403;SDS011;23116;47.660;9.126;2023-04-24T12:45:47;0.98;;;0.98;;
34403;SDS011;23116;47.660;9.126;2023-04-24T12:48:14;1.63;;;1.00;;
34403;SDS011;23116;47.660;9.126;2023-04-24T12:50:42;0.85;;;0.85;;
34403;SDS011;23116;47.660;9.126;2023-04-24T12:53:09;1.17;;;1.10;;
34403;SDS011;23116;47.660;9.126;2023-04-24T12:55:36;3.05;;;1.10;;
34403;SDS011;23116;47.660;9.126;2023-04-24T12:58:04;1.05;;;0.82;;
34403;SDS011;23116;47.660;9.126;2023-04-24T13:00:31;1.15;;;1.05;;
34403;SDS011;23116;47.660;9.126;2023-04-24T13:02:58;1.30;;;1.10;;
34403;SDS011;23116;47.660;9.126;2023-04-24T13:05:25;1.60;;;1.10;;
34403;SDS011;23116;47.660;9.126;2023-04-24T13:07:53;0.98;;;0.98;;
34403;SDS011;23116;47.660;9.126;2023-04-24T13:10:20;0.73;;;0.73;;
34403;SDS011;23116;47.660;9.126;2023-04-24T13:12:47;1.58;;;1.20;;
34403;SDS011;23116;47.660;9.126;2023-04-24T13:15:14;2.25;;;1.08;;
34403;SDS011;23116;47.660;9.126;2023-04-24T13:17:41;1.20;;;1.10;;
34403;SDS011;23116;47.660;9.126;2023-04-24T13:20:08;2.03;;;1.15;;
34403;SDS011;23116;47.660;9.126;2023-04-24T13:22:36;1.10;;;1.00;;
34403;SDS011;23116;47.660;9.126;2023-04-24T13:25:03;1.10;;;1.00;;
34403;SDS011;23116;47.660;9.126;2023-04-24T13:27:31;2.63;;;0.90;;
34403;SDS011;23116;47.660;9.126;2023-04-24T13:29:58;1.73;;;1.13;;
34403;SDS011;23116;47.660;9.126;2023-04-24T13:32:25;2.08;;;0.90;;
34403;SDS011;23116;47.660;9.126;2023-04-24T13:34:53;1.20;;;1.10;;
34403;SDS011;23116;47.660;9.126;2023-04-24T13:37:21;0.90;;;0.90;;
34403;SDS011;23116;47.660;9.126;2023-04-24T13:39:48;1.92;;;1.13;;
34403;SDS011;23116;47.660;9.126;2023-04-24T13:42:15;2.15;;;1.20;;
34403;SDS011;23116;47.660;9.126;2023-04-24T13:44:43;1.90;;;1.20;;
34403;SDS011;23116;47.660;9.126;2023-04-24T13:47:11;2.13;;;1.00;;
34403;SDS011;23116;47.660;9.126;2023-04-24T13:49:38;1.38;;;0.82;;
34403;SDS011;23116;47.660;9.126;2023-04-24T13:52:05;0.80;;;0.80;;
34403;SDS011;23116;47.660;9.126;2023-04-24T13:54:32;1.02;;;0.93;;
34403;SDS011;23116;47.660;9.126;2023-04-24T13:56:59;1.75;;;0.90;;
34403;SDS011;23116;47.660;9.126;2023-04-24T13:59:28;1.25;;;1.00;;
34403;SDS011;23116;47.660;9.126;2023-04-24T14:01:55;1.55;;;0.90;;
34403;SDS011;23116;47.660;9.126;2023-04-24T14:04:22;1.35;;;1.10;;
34403;SDS011;23116;47.660;9.126;2023-04-24T14:06:50;0.73;;;0.73;;
34403;SDS011;23116;47.660;9.126;2023-04-24T14:09:16;1.30;;;0.93;;
34403;SDS011;23116;47.660;9.126;2023-04-24T14:11:44;2.33;;;1.55;;
34403;SDS011;23116;47.660;9.126;2023-04-24T14:14:11;0.75;;;0.75;;
34403;SDS011;23116;47.660;9.126;2023-04-24T14:16:38;0.77;;;0.77;;
34403;SDS011;23116;47.660;9.126;2023-04-24T14:19:05;1.33;;;0.80;;
34403;SDS011;23116;47.660;9.126;2023-04-24T14:21:33;1.30;;;1.00;;
34403;SDS011;23116;47.660;9.126;2023-04-24T14:24:00;1.42;;;1.00;;
34403;SDS011;23116;47.660;9.126;2023-04-24T14:26:27;1.63;;;0.93;;
34403;SDS011;23116;47.660;9.126;2023-04-24T14:28:54;1.05;;;0.82;;
34403;SDS011;23116;47.660;9.126;2023-04-24T14:31:23;1.67;;;0.93;;
34403;SDS011;23116;47.660;9.126;2023-04-24T14:33:51;2.50;;;1.42;;
34403;SDS011;23116;47.660;9.126;2023-04-24T14:36:18;0.90;;;0.77;;
34403;SDS011;23116;47.660;9.126;2023-04-24T14:38:45;1.42;;;1.08;;
34403;SDS011;23116;47.660;9.126;2023-04-24T14:41:12;0.95;;;0.88;;
34403;SDS011;23116;47.660;9.126;2023-04-24T14:43:39;0.80;;;0.80;;
34403;SDS011;23116;47.660;9.126;2023-04-24T14:46:06;0.70;;;0.70;;
34403;SDS011;23116;47.660;9.126;2023-04-24T14:48:33;0.50;;;0.50;;
34403;SDS011;23116;47.660;9.126;2023-04-24T14:51:00;0.68;;;0.68;;
34403;SDS011;23116;47.660;9.126;2023-04-24T14:53:28;0.70;;;0.70;;
34403;SDS011;23116;47.660;9.126;2023-04-24T14:55:55;0.55;;;0.50;;
34403;SDS011;23116;47.660;9.126;2023-04-24T14:58:22;0.80;;;0.80;;
34403;SDS011;23116;47.660;9.126;2023-04-24T15:00:49;0.95;;;0.70;;
34403;SDS011;23116;47.660;9.126;2023-04-24T15:03:19;1.88;;;0.98;;
34403;SDS011;23116;47.660;9.126;2023-04-24T15:05:47;0.80;;;0.75;;
34403;SDS011;23116;47.660;9.126;2023-04-24T15:08:14;0.95;;;0.80;;
34403;SDS011;23116;47.660;9.126;2023-04-24T15:10:41;0.80;;;0.80;;
34403;SDS011;23116;47.660;9.126;2023-04-24T15:13:09;0.68;;;0.65;;